sensor_id;sensor_type;location;lat;lon;timestamp;P1;P2;P0
73973;PMS5003;62336;-26.094;27.994;2023-05-24T00:01:33;33;32;
73973;PMS5003;62336;-26.094;27.994;2023-05-24T00:03:58;24;23;
73973;PMS5003;62336;-26.094;27.994;2023-05-24T00:06:23;22;21;
73973;PMS5003;62336;-26.094;27.994;2023-05-24T00:08:48;21;20;
73973;PMS5003;62336;-26.094;27.994;2023-05-24T00:11:14;23;22;
73973;PMS5003;62336;-26.094;27.994;2023-05-24T00:13:39;23;22;
73973;PMS5003;62336;-26.094;27.994;2023-05-24T00:16:05;23;23;
73973;PMS5003;62336;-26.094;27.994;2023-05-24T00:18:30;20;19;
73973;PMS5003;62336;-26.094;27.994;2023-05-24T00:20:56;21;19;
73973;PMS5003;62336;-26.094;27.994;2023-05-24T00:23:21;19;18;
73973;PMS5003;62336;-26.094;27.994;2023-05-24T00:25:46;23;23;
73973;PMS5003;62336;-26.094;27.994;2023-05-24T00:28:11;23;21;
73973;PMS5003;62336;-26.094;27.994;2023-05-24T00:30:36;24;23;
73973;PMS5003;62336;-26.094;27.994;2023-05-24T00:33:01;18;18;
73973;PMS5003;62336;-26.094;27.994;2023-05-24T00:35:27;26;25;
73973;PMS5003;62336;-26.094;27.994;2023-05-24T00:37:52;25;22;
73973;PMS5003;62336;-26.094;27.994;2023-05-24T00:40:18;24;21;
73973;PMS5003;62336;-26.094;27.994;2023-05-24T00:42:43;22;21;
73973;PMS5003;62336;-26.094;27.994;2023-05-24T00:45:09;23;22;
73973;PMS5003;62336;-26.094;27.994;2023-05-24T00:47:34;27;26;
73973;PMS5003;62336;-26.094;27.994;2023-05-24T00:49:59;23;22;
73973;PMS5003;62336;-26.094;27.994;2023-05-24T00:52:25;24;22;
73973;PMS5003;62336;-26.094;27.994;2023-05-24T00:54:50;25;23;
73973;PMS5003;62336;-26.094;27.994;2023-05-24T00:57:15;27;24;
73973;PMS5003;62336;-26.094;27.994;2023-05-24T00:59:40;23;22;
73973;PMS5003;62336;-26.094;27.994;2023-05-24T01:02:05;24;23;
73973;PMS5003;62336;-26.094;27.994;2023-05-24T01:04:31;26;24;
73973;PMS5003;62336;-26.094;27.994;2023-05-24T01:07:02;20;18;
73973;PMS5003;62336;-26.094;27.994;2023-05-24T01:09:24;25;24;
73973;PMS5003;62336;-26.094;27.994;2023-05-24T01:11:52;23;22;
73973;PMS5003;62336;-26.094;27.994;2023-05-24T01:14:16;28;26;
73973;PMS5003;62336;-26.094;27.994;2023-05-24T01:16:39;27;25;
73973;PMS5003;62336;-26.094;27.994;2023-05-24T01:19:07;24;24;
73973;PMS5003;62336;-26.094;27.994;2023-05-24T01:21:34;27;24;
73973;PMS5003;62336;-26.094;27.994;2023-05-24T01:23:56;27;22;
73973;PMS5003;62336;-26.094;27.994;2023-05-24T01:26:24;25;24;
73973;PMS5003;62336;-26.094;27.994;2023-05-24T01:28:45;23;22;
73973;PMS5003;62336;-26.094;27.994;2023-05-24T01:31:10;26;23;
73973;PMS5003;62336;-26.094;27.994;2023-05-24T01:33:39;27;25;
73973;PMS5003;62336;-26.094;27.994;2023-05-24T01:36:01;25;23;
73973;PMS5003;62336;-26.094;27.994;2023-05-24T01:38:26;25;24;
73973;PMS5003;62336;-26.094;27.994;2023-05-24T01:41:00;25;23;
73973;PMS5003;62336;-26.094;27.994;2023-05-24T01:43:21;28;26;
73973;PMS5003;62336;-26.094;27.994;2023-05-24T01:45:45;26;24;
73973;PMS5003;62336;-26.094;27.994;2023-05-24T01:48:10;24;24;
73973;PMS5003;62336;-26.094;27.994;2023-05-24T01:50:35;26;23;
73973;PMS5003;62336;-26.094;27.994;2023-05-24T01:53:01;28;27;
73973;PMS5003;62336;-26.094;27.994;2023-05-24T01:55:24;27;26;
73973;PMS5003;62336;-26.094;27.994;2023-05-24T01:57:49;29;28;
73973;PMS5003;62336;-26.094;27.994;2023-05-24T02:00:15;33;30;
73973;PMS5003;62336;-26.094;27.994;2023-05-24T02:02:41;27;27;
73973;PMS5003;62336;-26.094;27.994;2023-05-24T02:05:06;33;29;
73973;PMS5003;62336;-26.094;27.994;2023-05-24T02:07:31;29;27;
73973;PMS5003;62336;-26.094;27.994;2023-05-24T02:09:57;27;24;
73973;PMS5003;62336;-26.094;27.994;2023-05-24T02:12:23;32;28;
73973;PMS5003;62336;-26.094;27.994;2023-05-24T02:14:48;30;28;
73973;PMS5003;62336;-26.094;27.994;2023-05-24T02:17:13;30;27;
73973;PMS5003;62336;-26.094;27.994;2023-05-24T02:19:39;23;23;
73973;PMS5003;62336;-26.094;27.994;2023-05-24T02:22:05;30;27;
73973;PMS5003;62336;-26.094;27.994;2023-05-24T02:24:30;22;21;
73973;PMS5003;62336;-26.094;27.994;2023-05-24T02:26:56;26;22;
73973;PMS5003;62336;-26.094;27.994;2023-05-24T02:29:21;28;27;
73973;PMS5003;62336;-26.094;27.994;2023-05-24T02:31:46;26;25;
73973;PMS5003;62336;-26.094;27.994;2023-05-24T02:34:12;28;27;
73973;PMS5003;62336;-26.094;27.994;2023-05-24T02:36:38;26;25;
73973;PMS5003;62336;-26.094;27.994;2023-05-24T02:39:03;30;29;
73973;PMS5003;62336;-26.094;27.994;2023-05-24T02:41:28;31;28;
73973;PMS5003;62336;-26.094;27.994;2023-05-24T02:43:54;31;29;
73973;PMS5003;62336;-26.094;27.994;2023-05-24T02:46:20;35;32;
73973;PMS5003;62336;-26.094;27.994;2023-05-24T02:48:45;33;31;
73973;PMS5003;62336;-26.094;27.994;2023-05-24T02:51:11;29;27;
73973;PMS5003;62336;-26.094;27.994;2023-05-24T02:53:36;31;29;
73973;PMS5003;62336;-26.094;27.994;2023-05-24T02:56:02;31;28;
73973;PMS5003;62336;-26.094;27.994;2023-05-24T02:58:28;27;27;
73973;PMS5003;62336;-26.094;27.994;2023-05-24T03:00:53;24;24;
73973;PMS5003;62336;-26.094;27.994;2023-05-24T03:03:19;30;28;
73973;PMS5003;62336;-26.094;27.994;2023-05-24T03:05:44;33;28;
73973;PMS5003;62336;-26.094;27.994;2023-05-24T03:08:10;31;30;
73973;PMS5003;62336;-26.094;27.994;2023-05-24T03:10:36;29;27;
73973;PMS5003;62336;-26.094;27.994;2023-05-24T03:13:01;35;31;
73973;PMS5003;62336;-26.094;27.994;2023-05-24T03:15:26;34;32;
73973;PMS5003;62336;-26.094;27.994;2023-05-24T03:17:52;31;30;
73973;PMS5003;62336;-26.094;27.994;2023-05-24T03:20:17;36;32;
73973;PMS5003;62336;-26.094;27.994;2023-05-24T03:22:43;30;29;
73973;PMS5003;62336;-26.094;27.994;2023-05-24T03:25:08;36;32;
73973;PMS5003;62336;-26.094;27.994;2023-05-24T03:27:34;36;32;
73973;PMS5003;62336;-26.094;27.994;2023-05-24T03:29:59;36;32;
73973;PMS5003;62336;-26.094;27.994;2023-05-24T03:32:24;31;30;
73973;PMS5003;62336;-26.094;27.994;2023-05-24T03:34:50;35;33;
73973;PMS5003;62336;-26.094;27.994;2023-05-24T03:37:16;29;29;
73973;PMS5003;62336;-26.094;27.994;2023-05-24T03:39:41;32;30;
73973;PMS5003;62336;-26.094;27.994;2023-05-24T03:42:07;31;30;
73973;PMS5003;62336;-26.094;27.994;2023-05-24T03:44:32;28;28;
73973;PMS5003;62336;-26.094;27.994;2023-05-24T03:46:58;34;33;
73973;PMS5003;62336;-26.094;27.994;2023-05-24T03:49:23;35;33;
73973;PMS5003;62336;-26.094;27.994;2023-05-24T03:51:48;31;30;
73973;PMS5003;62336;-26.094;27.994;2023-05-24T03:54:14;35;32;
73973;PMS5003;62336;-26.094;27.994;2023-05-24T03:56:39;41;39;
73973;PMS5003;62336;-26.094;27.994;2023-05-24T03:59:04;38;34;
73973;PMS5003;62336;-26.094;27.994;2023-05-24T04:01:29;39;36;
73973;PMS5003;62336;-26.094;27.994;2023-05-24T04:03:55;39;38;
73973;PMS5003;62336;-26.094;27.994;2023-05-24T04:06:21;38;34;
73973;PMS5003;62336;-26.094;27.994;2023-05-24T04:08:46;33;33;
73973;PMS5003;62336;-26.094;27.994;2023-05-24T04:11:12;37;36;
73973;PMS5003;62336;-26.094;27.994;2023-05-24T04:13:37;37;34;
73973;PMS5003;62336;-26.094;27.994;2023-05-24T04:16:03;39;36;
73973;PMS5003;62336;-26.094;27.994;2023-05-24T04:18:29;33;31;
73973;PMS5003;62336;-26.094;27.994;2023-05-24T04:20:54;35;33;
73973;PMS5003;62336;-26.094;27.994;2023-05-24T04:23:19;32;29;
73973;PMS5003;62336;-26.094;27.994;2023-05-24T04:25:45;34;32;
73973;PMS5003;62336;-26.094;27.994;2023-05-24T04:28:10;36;32;
73973;PMS5003;62336;-26.094;27.994;2023-05-24T04:30:35;34;32;
73973;PMS5003;62336;-26.094;27.994;2023-05-24T04:33:01;36;35;
73973;PMS5003;62336;-26.094;27.994;2023-05-24T04:35:26;34;32;
73973;PMS5003;62336;-26.094;27.994;2023-05-24T04:37:51;33;31;
73973;PMS5003;62336;-26.094;27.994;2023-05-24T04:40:17;35;31;
73973;PMS5003;62336;-26.094;27.994;2023-05-24T04:42:43;32;32;
73973;PMS5003;62336;-26.094;27.994;2023-05-24T04:45:08;38;36;
73973;PMS5003;62336;-26.094;27.994;2023-05-24T04:47:33;43;39;
73973;PMS5003;62336;-26.094;27.994;2023-05-24T04:49:58;37;33;
73973;PMS5003;62336;-26.094;27.994;2023-05-24T04:52:24;42;38;
73973;PMS5003;62336;-26.094;27.994;2023-05-24T04:54:49;40;39;
73973;PMS5003;62336;-26.094;27.994;2023-05-24T04:57:14;38;37;
73973;PMS5003;62336;-26.094;27.994;2023-05-24T04:59:40;39;37;
73973;PMS5003;62336;-26.094;27.994;2023-05-24T05:02:05;40;37;
73973;PMS5003;62336;-26.094;27.994;2023-05-24T05:04:30;41;40;
73973;PMS5003;62336;-26.094;27.994;2023-05-24T05:06:56;44;41;
73973;PMS5003;62336;-26.094;27.994;2023-05-24T05:09:21;40;39;
73973;PMS5003;62336;-26.094;27.994;2023-05-24T05:11:51;42;39;
73973;PMS5003;62336;-26.094;27.994;2023-05-24T05:14:13;41;40;
73973;PMS5003;62336;-26.094;27.994;2023-05-24T05:16:39;45;44;
73973;PMS5003;62336;-26.094;27.994;2023-05-24T05:19:04;39;38;
73973;PMS5003;62336;-26.094;27.994;2023-05-24T05:21:29;34;33;
73973;PMS5003;62336;-26.094;27.994;2023-05-24T05:23:55;42;41;
73973;PMS5003;62336;-26.094;27.994;2023-05-24T05:26:20;41;38;
73973;PMS5003;62336;-26.094;27.994;2023-05-24T05:28:45;41;40;
73973;PMS5003;62336;-26.094;27.994;2023-05-24T05:31:11;45;43;
73973;PMS5003;62336;-26.094;27.994;2023-05-24T05:33:36;49;45;
73973;PMS5003;62336;-26.094;27.994;2023-05-24T05:36:02;47;45;
73973;PMS5003;62336;-26.094;27.994;2023-05-24T05:38:27;43;42;
73973;PMS5003;62336;-26.094;27.994;2023-05-24T05:40:53;47;46;
73973;PMS5003;62336;-26.094;27.994;2023-05-24T05:43:19;50;46;
73973;PMS5003;62336;-26.094;27.994;2023-05-24T05:45:44;48;45;
73973;PMS5003;62336;-26.094;27.994;2023-05-24T05:48:10;46;45;
73973;PMS5003;62336;-26.094;27.994;2023-05-24T05:50:35;51;47;
73973;PMS5003;62336;-26.094;27.994;2023-05-24T05:53:01;53;49;
73973;PMS5003;62336;-26.094;27.994;2023-05-24T05:55:27;51;50;
73973;PMS5003;62336;-26.094;27.994;2023-05-24T05:57:51;50;48;
73973;PMS5003;62336;-26.094;27.994;2023-05-24T06:00:17;41;39;
73973;PMS5003;62336;-26.094;27.994;2023-05-24T06:02:42;47;44;
73973;PMS5003;62336;-26.094;27.994;2023-05-24T06:05:08;54;52;
73973;PMS5003;62336;-26.094;27.994;2023-05-24T06:07:34;50;49;
73973;PMS5003;62336;-26.094;27.994;2023-05-24T06:09:59;49;48;
73973;PMS5003;62336;-26.094;27.994;2023-05-24T06:12:24;49;45;
73973;PMS5003;62336;-26.094;27.994;2023-05-24T06:14:50;49;45;
73973;PMS5003;62336;-26.094;27.994;2023-05-24T06:17:15;45;42;
73973;PMS5003;62336;-26.094;27.994;2023-05-24T06:19:40;38;36;
73973;PMS5003;62336;-26.094;27.994;2023-05-24T06:22:05;37;35;
73973;PMS5003;62336;-26.094;27.994;2023-05-24T06:24:31;38;35;
73973;PMS5003;62336;-26.094;27.994;2023-05-24T06:26:56;38;36;
73973;PMS5003;62336;-26.094;27.994;2023-05-24T06:29:22;31;28;
73973;PMS5003;62336;-26.094;27.994;2023-05-24T06:31:47;34;33;
73973;PMS5003;62336;-26.094;27.994;2023-05-24T06:34:12;38;35;
73973;PMS5003;62336;-26.094;27.994;2023-05-24T06:36:38;35;32;
73973;PMS5003;62336;-26.094;27.994;2023-05-24T06:39:03;33;33;
73973;PMS5003;62336;-26.094;27.994;2023-05-24T06:41:29;40;38;
73973;PMS5003;62336;-26.094;27.994;2023-05-24T06:43:54;30;29;
73973;PMS5003;62336;-26.094;27.994;2023-05-24T06:46:19;31;30;
73973;PMS5003;62336;-26.094;27.994;2023-05-24T06:48:45;32;31;
73973;PMS5003;62336;-26.094;27.994;2023-05-24T06:51:10;37;34;
73973;PMS5003;62336;-26.094;27.994;2023-05-24T06:53:36;33;31;
73973;PMS5003;62336;-26.094;27.994;2023-05-24T06:56:01;31;31;
73973;PMS5003;62336;-26.094;27.994;2023-05-24T06:58:27;33;33;
73973;PMS5003;62336;-26.094;27.994;2023-05-24T07:00:52;47;41;
73973;PMS5003;62336;-26.094;27.994;2023-05-24T07:03:17;38;35;
73973;PMS5003;62336;-26.094;27.994;2023-05-24T07:05:43;37;32;
73973;PMS5003;62336;-26.094;27.994;2023-05-24T07:08:08;45;43;
73973;PMS5003;62336;-26.094;27.994;2023-05-24T07:10:33;35;34;
73973;PMS5003;62336;-26.094;27.994;2023-05-24T07:12:58;39;34;
73973;PMS5003;62336;-26.094;27.994;2023-05-24T07:15:24;38;37;
73973;PMS5003;62336;-26.094;27.994;2023-05-24T07:17:49;40;35;
73973;PMS5003;62336;-26.094;27.994;2023-05-24T07:20:14;33;32;
73973;PMS5003;62336;-26.094;27.994;2023-05-24T07:22:40;34;33;
73973;PMS5003;62336;-26.094;27.994;2023-05-24T07:25:06;40;36;
73973;PMS5003;62336;-26.094;27.994;2023-05-24T07:27:31;38;37;
73973;PMS5003;62336;-26.094;27.994;2023-05-24T07:29:57;36;35;
73973;PMS5003;62336;-26.094;27.994;2023-05-24T07:32:21;38;34;
73973;PMS5003;62336;-26.094;27.994;2023-05-24T07:34:47;46;42;
73973;PMS5003;62336;-26.094;27.994;2023-05-24T07:37:13;42;39;
73973;PMS5003;62336;-26.094;27.994;2023-05-24T07:39:37;36;34;
73973;PMS5003;62336;-26.094;27.994;2023-05-24T07:42:03;40;40;
73973;PMS5003;62336;-26.094;27.994;2023-05-24T07:44:28;39;37;
73973;PMS5003;62336;-26.094;27.994;2023-05-24T07:46:54;38;34;
73973;PMS5003;62336;-26.094;27.994;2023-05-24T07:49:19;39;39;
73973;PMS5003;62336;-26.094;27.994;2023-05-24T07:51:45;38;35;
73973;PMS5003;62336;-26.094;27.994;2023-05-24T07:54:10;37;36;
73973;PMS5003;62336;-26.094;27.994;2023-05-24T07:56:35;37;35;
73973;PMS5003;62336;-26.094;27.994;2023-05-24T07:59:00;43;41;
73973;PMS5003;62336;-26.094;27.994;2023-05-24T08:01:26;44;41;
73973;PMS5003;62336;-26.094;27.994;2023-05-24T08:03:51;48;39;
73973;PMS5003;62336;-26.094;27.994;2023-05-24T08:06:17;49;43;
73973;PMS5003;62336;-26.094;27.994;2023-05-24T08:08:42;39;38;
73973;PMS5003;62336;-26.094;27.994;2023-05-24T08:11:08;36;33;
73973;PMS5003;62336;-26.094;27.994;2023-05-24T08:13:33;36;34;
73973;PMS5003;62336;-26.094;27.994;2023-05-24T08:15:59;32;29;
73973;PMS5003;62336;-26.094;27.994;2023-05-24T08:18:24;32;30;
73973;PMS5003;62336;-26.094;27.994;2023-05-24T08:20:50;31;30;
73973;PMS5003;62336;-26.094;27.994;2023-05-24T08:23:15;27;27;
73973;PMS5003;62336;-26.094;27.994;2023-05-24T08:25:41;26;25;
73973;PMS5003;62336;-26.094;27.994;2023-05-24T08:28:06;25;22;
73973;PMS5003;62336;-26.094;27.994;2023-05-24T08:30:32;30;28;
73973;PMS5003;62336;-26.094;27.994;2023-05-24T08:32:57;31;27;
73973;PMS5003;62336;-26.094;27.994;2023-05-24T08:35:23;37;35;
73973;PMS5003;62336;-26.094;27.994;2023-05-24T08:37:49;23;22;
73973;PMS5003;62336;-26.094;27.994;2023-05-24T08:40:14;23;22;
73973;PMS5003;62336;-26.094;27.994;2023-05-24T08:42:40;24;21;
73973;PMS5003;62336;-26.094;27.994;2023-05-24T08:45:08;28;25;
73973;PMS5003;62336;-26.094;27.994;2023-05-24T08:47:31;24;21;
73973;PMS5003;62336;-26.094;27.994;2023-05-24T08:49:57;22;22;
73973;PMS5003;62336;-26.094;27.994;2023-05-24T08:52:22;33;31;
73973;PMS5003;62336;-26.094;27.994;2023-05-24T08:54:48;31;29;
73973;PMS5003;62336;-26.094;27.994;2023-05-24T08:57:13;35;35;
73973;PMS5003;62336;-26.094;27.994;2023-05-24T08:59:38;35;32;
73973;PMS5003;62336;-26.094;27.994;2023-05-24T09:02:04;35;34;
73973;PMS5003;62336;-26.094;27.994;2023-05-24T09:04:29;30;30;
73973;PMS5003;62336;-26.094;27.994;2023-05-24T09:06:54;26;25;
73973;PMS5003;62336;-26.094;27.994;2023-05-24T09:09:20;28;27;
73973;PMS5003;62336;-26.094;27.994;2023-05-24T09:11:46;28;26;
73973;PMS5003;62336;-26.094;27.994;2023-05-24T09:14:11;28;27;
73973;PMS5003;62336;-26.094;27.994;2023-05-24T09:16:36;31;31;
73973;PMS5003;62336;-26.094;27.994;2023-05-24T09:19:01;30;29;
73973;PMS5003;62336;-26.094;27.994;2023-05-24T09:21:27;29;28;
73973;PMS5003;62336;-26.094;27.994;2023-05-24T09:23:51;28;27;
73973;PMS5003;62336;-26.094;27.994;2023-05-24T09:26:17;35;31;
73973;PMS5003;62336;-26.094;27.994;2023-05-24T09:28:43;34;33;
73973;PMS5003;62336;-26.094;27.994;2023-05-24T09:31:08;28;26;
73973;PMS5003;62336;-26.094;27.994;2023-05-24T09:33:35;34;30;
73973;PMS5003;62336;-26.094;27.994;2023-05-24T09:36:00;28;27;
73973;PMS5003;62336;-26.094;27.994;2023-05-24T09:38:25;26;26;
73973;PMS5003;62336;-26.094;27.994;2023-05-24T09:43:16;36;33;
73973;PMS5003;62336;-26.094;27.994;2023-05-24T09:45:42;35;34;
73973;PMS5003;62336;-26.094;27.994;2023-05-24T09:48:09;34;33;
73973;PMS5003;62336;-26.094;27.994;2023-05-24T09:50:31;29;27;
73973;PMS5003;62336;-26.094;27.994;2023-05-24T09:52:57;24;23;
73973;PMS5003;62336;-26.094;27.994;2023-05-24T09:55:23;22;22;
73973;PMS5003;62336;-26.094;27.994;2023-05-24T09:57:49;21;20;
73973;PMS5003;62336;-26.094;27.994;2023-05-24T10:00:13;24;22;
73973;PMS5003;62336;-26.094;27.994;2023-05-24T10:02:39;23;22;
73973;PMS5003;62336;-26.094;27.994;2023-05-24T10:05:04;23;23;
73973;PMS5003;62336;-26.094;27.994;2023-05-24T10:07:29;20;19;
73973;PMS5003;62336;-26.094;27.994;2023-05-24T10:09:54;22;20;
73973;PMS5003;62336;-26.094;27.994;2023-05-24T10:12:20;22;19;
73973;PMS5003;62336;-26.094;27.994;2023-05-24T10:14:45;26;22;
73973;PMS5003;62336;-26.094;27.994;2023-05-24T10:17:11;26;25;
73973;PMS5003;62336;-26.094;27.994;2023-05-24T10:19:36;25;24;
73973;PMS5003;62336;-26.094;27.994;2023-05-24T10:22:03;23;23;
73973;PMS5003;62336;-26.094;27.994;2023-05-24T10:24:28;26;24;
73973;PMS5003;62336;-26.094;27.994;2023-05-24T10:26:52;27;24;
73973;PMS5003;62336;-26.094;27.994;2023-05-24T10:29:20;30;26;
73973;PMS5003;62336;-26.094;27.994;2023-05-24T10:31:44;26;23;
73973;PMS5003;62336;-26.094;27.994;2023-05-24T10:34:08;25;25;
73973;PMS5003;62336;-26.094;27.994;2023-05-24T10:36:33;24;23;
73973;PMS5003;62336;-26.094;27.994;2023-05-24T10:38:59;28;26;
73973;PMS5003;62336;-26.094;27.994;2023-05-24T10:41:24;29;26;
73973;PMS5003;62336;-26.094;27.994;2023-05-24T10:43:49;25;25;
73973;PMS5003;62336;-26.094;27.994;2023-05-24T10:46:15;32;26;
73973;PMS5003;62336;-26.094;27.994;2023-05-24T10:48:40;26;25;
73973;PMS5003;62336;-26.094;27.994;2023-05-24T10:53:37;27;26;
73973;PMS5003;62336;-26.094;27.994;2023-05-24T10:55:57;24;23;
73973;PMS5003;62336;-26.094;27.994;2023-05-24T10:58:28;27;25;
73973;PMS5003;62336;-26.094;27.994;2023-05-24T11:00:48;21;20;
73973;PMS5003;62336;-26.094;27.994;2023-05-24T11:03:13;27;27;
73973;PMS5003;62336;-26.094;27.994;2023-05-24T11:08:05;31;27;
73973;PMS5003;62336;-26.094;27.994;2023-05-24T11:10:29;23;23;
73973;PMS5003;62336;-26.094;27.994;2023-05-24T11:12:56;29;27;
73973;PMS5003;62336;-26.094;27.994;2023-05-24T11:15:22;26;25;
73973;PMS5003;62336;-26.094;27.994;2023-05-24T11:20:11;32;30;
73973;PMS5003;62336;-26.094;27.994;2023-05-24T11:22:36;29;28;
73973;PMS5003;62336;-26.094;27.994;2023-05-24T11:25:01;24;24;
73973;PMS5003;62336;-26.094;27.994;2023-05-24T11:27:27;24;23;
73973;PMS5003;62336;-26.094;27.994;2023-05-24T11:29:52;24;23;
73973;PMS5003;62336;-26.094;27.994;2023-05-24T11:32:19;28;26;
73973;PMS5003;62336;-26.094;27.994;2023-05-24T11:34:44;25;24;
73973;PMS5003;62336;-26.094;27.994;2023-05-24T11:37:09;25;24;
73973;PMS5003;62336;-26.094;27.994;2023-05-24T11:39:34;30;28;
73973;PMS5003;62336;-26.094;27.994;2023-05-24T11:42:00;24;20;
73973;PMS5003;62336;-26.094;27.994;2023-05-24T11:44:25;23;22;
73973;PMS5003;62336;-26.094;27.994;2023-05-24T11:46:55;23;22;
73973;PMS5003;62336;-26.094;27.994;2023-05-24T11:49:16;26;25;
73973;PMS5003;62336;-26.094;27.994;2023-05-24T11:51:41;23;22;
73973;PMS5003;62336;-26.094;27.994;2023-05-24T11:54:07;25;23;
73973;PMS5003;62336;-26.094;27.994;2023-05-24T11:56:32;25;24;
73973;PMS5003;62336;-26.094;27.994;2023-05-24T11:59:02;25;23;
73973;PMS5003;62336;-26.094;27.994;2023-05-24T12:01:23;25;23;
73973;PMS5003;62336;-26.094;27.994;2023-05-24T12:03:48;24;23;
73973;PMS5003;62336;-26.094;27.994;2023-05-24T12:06:13;21;21;
73973;PMS5003;62336;-26.094;27.994;2023-05-24T12:08:39;22;22;
73973;PMS5003;62336;-26.094;27.994;2023-05-24T12:11:04;24;23;
73973;PMS5003;62336;-26.094;27.994;2023-05-24T12:13:29;28;26;
73973;PMS5003;62336;-26.094;27.994;2023-05-24T12:15:54;23;23;
73973;PMS5003;62336;-26.094;27.994;2023-05-24T12:18:19;26;23;
73973;PMS5003;62336;-26.094;27.994;2023-05-24T12:20:44;21;21;
73973;PMS5003;62336;-26.094;27.994;2023-05-24T12:23:10;26;24;
73973;PMS5003;62336;-26.094;27.994;2023-05-24T12:25:36;23;23;
73973;PMS5003;62336;-26.094;27.994;2023-05-24T12:28:01;25;24;
73973;PMS5003;62336;-26.094;27.994;2023-05-24T12:30:26;22;21;
73973;PMS5003;62336;-26.094;27.994;2023-05-24T12:32:52;22;21;
73973;PMS5003;62336;-26.094;27.994;2023-05-24T12:35:17;22;21;
73973;PMS5003;62336;-26.094;27.994;2023-05-24T12:37:43;21;20;
73973;PMS5003;62336;-26.094;27.994;2023-05-24T12:40:14;18;18;
73973;PMS5003;62336;-26.094;27.994;2023-05-24T12:42:33;24;22;
73973;PMS5003;62336;-26.094;27.994;2023-05-24T12:44:59;20;19;
73973;PMS5003;62336;-26.094;27.994;2023-05-24T12:47:24;20;19;
73973;PMS5003;62336;-26.094;27.994;2023-05-24T12:49:49;19;19;
73973;PMS5003;62336;-26.094;27.994;2023-05-24T12:52:15;18;18;
73973;PMS5003;62336;-26.094;27.994;2023-05-24T12:54:40;19;18;
73973;PMS5003;62336;-26.094;27.994;2023-05-24T12:57:05;21;18;
73973;PMS5003;62336;-26.094;27.994;2023-05-24T12:59:32;17;15;
73973;PMS5003;62336;-26.094;27.994;2023-05-24T13:01:57;18;17;
73973;PMS5003;62336;-26.094;27.994;2023-05-24T13:04:22;19;18;
73973;PMS5003;62336;-26.094;27.994;2023-05-24T13:06:47;19;17;
73973;PMS5003;62336;-26.094;27.994;2023-05-24T13:09:13;18;18;
73973;PMS5003;62336;-26.094;27.994;2023-05-24T13:11:38;14;14;
73973;PMS5003;62336;-26.094;27.994;2023-05-24T13:14:04;16;16;
73973;PMS5003;62336;-26.094;27.994;2023-05-24T13:16:31;21;20;
73973;PMS5003;62336;-26.094;27.994;2023-05-24T13:18:55;20;19;
73973;PMS5003;62336;-26.094;27.994;2023-05-24T13:21:21;14;14;
73973;PMS5003;62336;-26.094;27.994;2023-05-24T13:23:46;18;16;
73973;PMS5003;62336;-26.094;27.994;2023-05-24T13:26:11;18;18;
73973;PMS5003;62336;-26.094;27.994;2023-05-24T13:28:37;18;17;
73973;PMS5003;62336;-26.094;27.994;2023-05-24T13:31:03;15;15;
73973;PMS5003;62336;-26.094;27.994;2023-05-24T13:33:29;16;15;
73973;PMS5003;62336;-26.094;27.994;2023-05-24T13:35:53;15;14;
73973;PMS5003;62336;-26.094;27.994;2023-05-24T13:38:19;19;18;
73973;PMS5003;62336;-26.094;27.994;2023-05-24T13:40:45;19;18;
73973;PMS5003;62336;-26.094;27.994;2023-05-24T13:43:10;18;16;
73973;PMS5003;62336;-26.094;27.994;2023-05-24T13:45:36;14;14;
73973;PMS5003;62336;-26.094;27.994;2023-05-24T13:48:02;17;15;
73973;PMS5003;62336;-26.094;27.994;2023-05-24T13:50:27;20;20;
73973;PMS5003;62336;-26.094;27.994;2023-05-24T13:52:52;20;18;
73973;PMS5003;62336;-26.094;27.994;2023-05-24T13:55:17;21;19;
73973;PMS5003;62336;-26.094;27.994;2023-05-24T13:57:43;16;15;
73973;PMS5003;62336;-26.094;27.994;2023-05-24T14:00:08;17;17;
73973;PMS5003;62336;-26.094;27.994;2023-05-24T14:02:33;22;19;
73973;PMS5003;62336;-26.094;27.994;2023-05-24T14:07:24;22;20;
73973;PMS5003;62336;-26.094;27.994;2023-05-24T14:09:49;19;17;
73973;PMS5003;62336;-26.094;27.994;2023-05-24T14:12:15;19;19;
73973;PMS5003;62336;-26.094;27.994;2023-05-24T14:14:41;15;15;
73973;PMS5003;62336;-26.094;27.994;2023-05-24T14:17:06;18;17;
73973;PMS5003;62336;-26.094;27.994;2023-05-24T14:19:32;19;17;
73973;PMS5003;62336;-26.094;27.994;2023-05-24T14:21:57;18;17;
73973;PMS5003;62336;-26.094;27.994;2023-05-24T14:24:23;16;16;
73973;PMS5003;62336;-26.094;27.994;2023-05-24T14:26:50;20;19;
73973;PMS5003;62336;-26.094;27.994;2023-05-24T14:29:14;17;17;
73973;PMS5003;62336;-26.094;27.994;2023-05-24T14:31:40;17;16;
73973;PMS5003;62336;-26.094;27.994;2023-05-24T14:34:06;19;15;
73973;PMS5003;62336;-26.094;27.994;2023-05-24T14:36:31;22;21;
73973;PMS5003;62336;-26.094;27.994;2023-05-24T14:38:57;20;19;
73973;PMS5003;62336;-26.094;27.994;2023-05-24T14:41:22;19;18;
73973;PMS5003;62336;-26.094;27.994;2023-05-24T14:43:46;18;18;
73973;PMS5003;62336;-26.094;27.994;2023-05-24T14:46:12;18;15;
73973;PMS5003;62336;-26.094;27.994;2023-05-24T14:48:38;19;19;
73973;PMS5003;62336;-26.094;27.994;2023-05-24T14:51:03;21;20;
73973;PMS5003;62336;-26.094;27.994;2023-05-24T14:53:28;22;21;
73973;PMS5003;62336;-26.094;27.994;2023-05-24T14:55:53;21;19;
73973;PMS5003;62336;-26.094;27.994;2023-05-24T14:58:19;19;17;
73973;PMS5003;62336;-26.094;27.994;2023-05-24T15:00:45;28;28;
73973;PMS5003;62336;-26.094;27.994;2023-05-24T15:03:10;22;20;
73973;PMS5003;62336;-26.094;27.994;2023-05-24T15:05:35;21;21;
73973;PMS5003;62336;-26.094;27.994;2023-05-24T15:08:01;27;26;
73973;PMS5003;62336;-26.094;27.994;2023-05-24T15:10:27;28;26;
73973;PMS5003;62336;-26.094;27.994;2023-05-24T15:12:52;33;31;
73973;PMS5003;62336;-26.094;27.994;2023-05-24T15:15:18;31;29;
73973;PMS5003;62336;-26.094;27.994;2023-05-24T15:17:43;31;29;
73973;PMS5003;62336;-26.094;27.994;2023-05-24T15:20:09;35;32;
73973;PMS5003;62336;-26.094;27.994;2023-05-24T15:22:34;37;37;
73973;PMS5003;62336;-26.094;27.994;2023-05-24T15:25:00;33;32;
73973;PMS5003;62336;-26.094;27.994;2023-05-24T15:27:26;30;28;
73973;PMS5003;62336;-26.094;27.994;2023-05-24T15:29:50;30;28;
73973;PMS5003;62336;-26.094;27.994;2023-05-24T15:32:17;30;28;
73973;PMS5003;62336;-26.094;27.994;2023-05-24T15:34:41;28;27;
73973;PMS5003;62336;-26.094;27.994;2023-05-24T15:37:07;30;28;
73973;PMS5003;62336;-26.094;27.994;2023-05-24T15:39:32;39;34;
73973;PMS5003;62336;-26.094;27.994;2023-05-24T15:41:57;47;46;
73973;PMS5003;62336;-26.094;27.994;2023-05-24T15:44:23;36;34;
73973;PMS5003;62336;-26.094;27.994;2023-05-24T15:46:49;40;36;